Weather at Loučeň Airstrip

Public forecast

Using degrees Celsius for public forecast. Weather courtesy of forecast.io.

Closest aviation weather report (METAR) to Loučeň Airstrip

Closest report is Kbely Air Base, 22.0 nm (40.8 km) WSW. Retrieved 2020/12/04 22:30 UTC (0 seconds ago):

LKKB 042230Z 08008KT CAVOK 01/M01 Q0996

Closest aviation forecast (TAF) to Loučeň Airstrip

Closest forecast is Kbely Air Base, 22.0 nm (40.8 km) WSW. Retrieved 2020/12/04 18:00 UTC (4 hours ago):

TAF LKKB 041700Z 0418/0518 10008KT CAVOK TEMPO 0504/0518 12010G20KT